Airfield :
LOGIN :

Register | Disclaimer

   EN    FR    IT 

 










Legend :    VFR   Marginal VFR   IFR   Intensive IFR   Very Intensive IFR
Visi :
Ceiling :
>= 8 km
>= 3000ft
5 to 8 km
1000 to 3000 ft
1500m to 5 km
500 to 1000 ft
800 to 1500m
200 to 500 ft
< 800m
< 200 ft
Symbols :   Thunderstorms  Fog  Heavy snow  Heavy precipitations  Wind > 20 kt
SIGMETs :     Misc.  Thunderstorms  Icing  Turbulence  Mountain Waves  Volcanic Ashes






- Airport Elevation : 172 ft
- IATA code : ODS


UKOO - Odesa

CURRENT METAR :
  • 202300Z 00000MPS CAVOK 05/03 Q1029 R16/090060 NOSIG

EXPIRED METARs :
  • 202230Z 00000MPS CAVOK 05/03 Q1029 R16/090060 NOSIG
  • 202200Z 00000MPS CAVOK 05/02 Q1029 R16/090060 NOSIG
  • 202130Z 00000MPS CAVOK 06/03 Q1029 R16/090060 NOSIG
  • 202100Z 00000MPS CAVOK 06/02 Q1029 R16/090060 NOSIG
  • 202030Z 00000MPS CAVOK 07/04 Q1029 R16/090060 NOSIG

TAF TAF UKOO
Valid from the 21 at 00:00 until the 22 at 00:00 UTC


202305Z 2100/2124 10003MPS 2100 BR SCT020 TX17/2111Z TN03/2103Z
PROB40
TEMPO 2100/2106 0300 FG VV002
BECMG 2106/2107 18006G12MPS 6000 NSW
BECMG 2116/2117 2100 BR



MET'MAP, your aeronautical weather chart ! - Copyright ORBIFLY December 2007 - Disclaimer

ORBIFLY MET'MAP TEAM :

Programming & Development : Alexandra Zaïnal
Concept & original design : Baudouin d'Aumeries
Assistance for programming : Marc-Olivier Méhu
Technical & hardware support : Manuel Goepfert

Contact : metmap@orbifly.com




SOURCES & CREDITS :

   NOAA